createdAt,value
2018-12-21T00:02:14.676Z,75.10
2018-12-21T00:04:49.642Z,75.10
2018-12-21T00:07:24.602Z,75.10
2018-12-21T00:09:59.473Z,75.20
2018-12-21T00:12:36.871Z,75.00
2018-12-21T00:15:11.662Z,74.90
2018-12-21T00:17:47.121Z,74.70
2018-12-21T00:20:21.946Z,74.90
2018-12-21T00:22:57.089Z,74.90
2018-12-21T00:25:33.782Z,75.00
2018-12-21T00:28:10.852Z,75.40
2018-12-21T00:30:45.923Z,75.60
2018-12-21T00:33:27.826Z,75.90
2018-12-21T00:36:06.837Z,76.10
2018-12-21T00:38:46.660Z,76.30
2018-12-21T00:41:20.303Z,76.50
2018-12-21T00:44:01.453Z,76.60
2018-12-21T00:46:42.627Z,76.60
2018-12-21T00:49:18.048Z,76.60
2018-12-21T00:51:53.293Z,76.50
2018-12-21T00:54:29.702Z,76.20
2018-12-21T00:57:03.959Z,76.20
2018-12-21T00:59:39.142Z,76.20
2018-12-21T01:02:14.067Z,76.40
2018-12-21T01:04:48.385Z,76.50
2018-12-21T01:07:23.450Z,76.50
2018-12-21T01:10:00.294Z,76.20
2018-12-21T01:12:37.077Z,76.20
2018-12-21T01:15:11.657Z,76.80
2018-12-21T01:17:46.623Z,75.90
2018-12-21T01:20:23.747Z,75.60
2018-12-21T01:22:58.878Z,75.60
2018-12-21T01:25:33.906Z,75.50
2018-12-21T01:28:08.743Z,75.70
2018-12-21T01:30:43.890Z,75.30
2018-12-21T01:33:18.786Z,75.50
2018-12-21T01:35:53.466Z,75.30
2018-12-21T01:38:29.516Z,75.20
2018-12-21T01:41:04.812Z,75.00
2018-12-21T01:43:52.536Z,75.30
2018-12-21T01:46:27.475Z,75.10
2018-12-21T01:51:56.778Z,75.10
2018-12-21T01:54:31.417Z,75.10
2018-12-21T01:57:08.985Z,75.40
2018-12-21T01:59:44.206Z,75.50
2018-12-21T02:02:19.434Z,75.60
2018-12-21T02:04:54.342Z,75.50
2018-12-21T02:07:29.437Z,75.50
2018-12-21T02:10:04.104Z,75.50
2018-12-21T02:12:39.944Z,75.10
2018-12-21T02:15:14.392Z,74.90
2018-12-21T02:17:51.197Z,74.90
2018-12-21T02:20:24.070Z,74.60
2018-12-21T02:22:59.476Z,74.50
2018-12-21T02:25:34.332Z,74.50
2018-12-21T02:28:09.372Z,74.40
2018-12-21T02:30:44.513Z,74.10
2018-12-21T02:33:20.563Z,73.70
2018-12-21T02:35:57.095Z,73.60
2018-12-21T02:38:31.902Z,73.50
2018-12-21T02:41:06.819Z,73.20
2018-12-21T02:43:41.822Z,73.10
2018-12-21T02:46:17.540Z,73.00
2018-12-21T02:48:54.361Z,72.70
2018-12-21T02:51:28.557Z,72.70
2018-12-21T02:54:05.319Z,72.60
2018-12-21T02:56:41.841Z,72.70
2018-12-21T02:59:18.765Z,73.20
2018-12-21T03:01:55.413Z,74.00
2018-12-21T03:04:30.594Z,75.30
2018-12-21T03:07:07.432Z,75.60
2018-12-21T03:09:43.853Z,76.80
2018-12-21T03:12:18.701Z,77.20
2018-12-21T03:14:53.841Z,78.40
2018-12-21T03:17:28.446Z,78.90
2018-12-21T03:20:05.294Z,80.30
2018-12-21T03:22:40.092Z,81.30
2018-12-21T03:25:14.888Z,82.30
2018-12-21T03:27:49.615Z,83.50
2018-12-21T03:30:24.606Z,84.40
2018-12-21T03:32:59.848Z,85.10
2018-12-21T03:35:34.508Z,85.50
2018-12-21T03:38:09.444Z,85.90
2018-12-21T03:40:46.021Z,86.50
2018-12-21T03:43:22.666Z,86.60
2018-12-21T03:45:59.448Z,86.90
2018-12-21T03:48:36.616Z,87.50
2018-12-21T03:51:13.013Z,87.90
2018-12-21T03:53:49.903Z,88.10
2018-12-21T03:56:27.040Z,88.40
2018-12-21T03:59:03.115Z,88.80
2018-12-21T04:01:38.673Z,89.10
2018-12-21T04:04:15.031Z,89.30
2018-12-21T04:06:49.333Z,89.10
2018-12-21T04:09:25.560Z,89.30
2018-12-21T04:12:00.767Z,89.20
2018-12-21T04:14:35.838Z,89.20
2018-12-21T04:17:10.580Z,89.30
2018-12-21T04:19:47.102Z,89.50
2018-12-21T04:22:23.150Z,89.40
2018-12-21T04:25:00.408Z,89.40
2018-12-21T04:27:34.960Z,89.50
2018-12-21T04:30:11.658Z,89.70
2018-12-21T04:32:45.814Z,90.00
2018-12-21T04:35:22.138Z,90.00
2018-12-21T04:37:57.244Z,90.10
2018-12-21T04:40:32.137Z,90.20
2018-12-21T04:43:06.990Z,90.20
2018-12-21T04:45:41.727Z,90.40
2018-12-21T04:48:16.269Z,90.40
2018-12-21T04:50:50.948Z,90.50
2018-12-21T04:53:26.541Z,90.60
2018-12-21T04:56:01.125Z,90.60
2018-12-21T04:58:36.034Z,90.70
2018-12-21T05:01:11.503Z,90.50
2018-12-21T05:03:45.768Z,90.50
2018-12-21T05:06:20.586Z,90.60
2018-12-21T05:08:55.830Z,90.60
2018-12-21T05:11:31.909Z,90.60
2018-12-21T05:14:08.108Z,90.90
2018-12-21T05:16:44.782Z,91.10
2018-12-21T05:19:24.042Z,91.20
2018-12-21T05:21:58.842Z,91.40
2018-12-21T05:24:36.090Z,91.40
2018-12-21T05:27:10.544Z,91.60
2018-12-21T05:29:45.809Z,91.70
2018-12-21T05:32:19.929Z,91.80
2018-12-21T05:34:56.485Z,92.00
2018-12-21T05:37:32.433Z,92.10
2018-12-21T05:40:08.753Z,91.90
2018-12-21T05:42:43.678Z,92.20
2018-12-21T05:45:20.306Z,92.20
2018-12-21T05:47:53.723Z,92.30
2018-12-21T05:50:30.561Z,92.40
2018-12-21T05:53:06.414Z,92.50
2018-12-21T05:55:41.478Z,92.50
2018-12-21T05:58:18.716Z,92.60
2018-12-21T06:00:53.748Z,92.40
2018-12-21T06:03:30.401Z,92.70
2018-12-21T06:06:08.503Z,92.70
2018-12-21T06:08:44.488Z,92.80
2018-12-21T06:11:19.573Z,92.90
2018-12-21T06:13:54.738Z,93.00
2018-12-21T06:16:33.338Z,93.00
2018-12-21T06:19:07.745Z,93.10
2018-12-21T06:21:42.657Z,93.20
2018-12-21T06:24:17.593Z,93.20
2018-12-21T06:26:52.469Z,93.20
2018-12-21T06:29:28.038Z,93.30
2018-12-21T06:32:02.293Z,93.30
2018-12-21T06:34:37.384Z,93.40
2018-12-21T06:37:12.226Z,93.50
2018-12-21T06:39:48.540Z,93.50
2018-12-21T06:42:25.206Z,93.60
2018-12-21T06:45:00.485Z,93.70
2018-12-21T06:47:35.688Z,93.60
2018-12-21T06:50:09.220Z,93.70
2018-12-21T06:52:43.915Z,93.80
2018-12-21T06:55:18.783Z,93.70
2018-12-21T06:57:55.623Z,93.80
2018-12-21T07:00:32.337Z,93.80
2018-12-21T07:03:07.031Z,93.70
2018-12-21T07:05:41.573Z,93.80
2018-12-21T07:08:16.606Z,93.80
2018-12-21T07:10:53.078Z,93.80
2018-12-21T07:13:27.364Z,93.90
2018-12-21T07:16:02.658Z,93.90
2018-12-21T07:18:37.985Z,93.90
2018-12-21T07:21:13.056Z,93.90
2018-12-21T07:23:49.458Z,93.90
2018-12-21T07:26:25.593Z,93.90
2018-12-21T07:29:02.469Z,93.90
2018-12-21T07:31:35.829Z,94.00
2018-12-21T07:34:10.346Z,94.00
2018-12-21T07:36:45.433Z,94.00
2018-12-21T07:39:18.853Z,94.00
2018-12-21T07:41:55.763Z,94.00
2018-12-21T07:44:30.769Z,94.10
2018-12-21T07:47:07.271Z,94.10
2018-12-21T07:49:41.726Z,94.10
2018-12-21T07:52:16.622Z,94.10
2018-12-21T07:54:51.630Z,94.20
2018-12-21T07:57:26.538Z,94.20
2018-12-21T08:00:03.429Z,94.20
2018-12-21T08:02:38.806Z,94.20
2018-12-21T08:05:14.980Z,94.20
2018-12-21T08:07:51.852Z,94.20
2018-12-21T08:10:28.691Z,94.20
2018-12-21T08:13:03.993Z,94.30
2018-12-21T08:15:36.762Z,94.30
2018-12-21T08:18:13.009Z,94.40
2018-12-21T08:20:48.707Z,94.40
2018-12-21T08:23:23.484Z,94.50
2018-12-21T08:25:59.994Z,94.50
2018-12-21T08:28:35.713Z,94.60
2018-12-21T08:36:15.751Z,94.70
2018-12-21T08:38:50.625Z,94.70
2018-12-21T08:41:25.775Z,94.80
2018-12-21T08:44:00.486Z,94.80
2018-12-21T08:46:35.410Z,94.90
2018-12-21T08:49:10.441Z,95.00
2018-12-21T08:51:45.105Z,95.00
2018-12-21T08:54:20.022Z,95.00
2018-12-21T08:56:55.336Z,95.00
2018-12-21T08:59:30.193Z,95.00
2018-12-21T09:02:05.057Z,95.10
2018-12-21T09:04:40.129Z,95.10
2018-12-21T09:07:15.141Z,95.00
2018-12-21T09:09:50.141Z,95.00
2018-12-21T09:12:25.253Z,95.00
2018-12-21T09:15:01.769Z,95.10
2018-12-21T09:17:36.125Z,95.10
2018-12-21T09:20:13.817Z,95.10
2018-12-21T09:22:48.530Z,95.10
2018-12-21T09:25:23.608Z,95.10
2018-12-21T09:27:58.716Z,95.00
2018-12-21T09:30:35.293Z,95.10
2018-12-21T09:33:12.597Z,95.10
2018-12-21T09:35:47.146Z,95.10
2018-12-21T09:38:22.157Z,95.10
2018-12-21T09:40:58.432Z,95.10
2018-12-21T09:43:34.353Z,95.10
2018-12-21T09:46:11.437Z,95.10
2018-12-21T09:48:45.878Z,95.10
2018-12-21T09:51:21.087Z,95.20
2018-12-21T09:53:56.125Z,95.20
2018-12-21T09:56:31.061Z,95.20
2018-12-21T09:59:08.091Z,95.20
2018-12-21T10:01:43.209Z,95.30
2018-12-21T10:04:19.464Z,95.20
2018-12-21T10:06:56.793Z,95.30
2018-12-21T10:09:29.829Z,95.30
2018-12-21T10:12:04.834Z,95.30
2018-12-21T10:14:39.809Z,95.30
2018-12-21T10:17:14.378Z,95.30
2018-12-21T10:19:49.573Z,95.40
2018-12-21T10:22:24.873Z,95.40
2018-12-21T10:24:59.654Z,95.40
2018-12-21T10:27:34.846Z,95.40
2018-12-21T10:30:12.257Z,95.40
2018-12-21T10:32:48.740Z,95.50
2018-12-21T10:35:23.889Z,95.40
2018-12-21T10:37:59.005Z,95.50
2018-12-21T10:40:36.018Z,95.50
2018-12-21T10:43:10.609Z,95.50
2018-12-21T10:45:45.777Z,95.60
2018-12-21T10:48:20.525Z,95.60
2018-12-21T10:50:55.581Z,95.60
2018-12-21T10:53:30.105Z,95.60
2018-12-21T10:56:05.344Z,95.60
2018-12-21T10:58:40.410Z,95.70
2018-12-21T11:01:15.865Z,95.70
2018-12-21T11:03:51.882Z,95.60
2018-12-21T11:06:26.386Z,95.60
2018-12-21T11:09:03.243Z,95.60
2018-12-21T11:11:37.813Z,95.60
2018-12-21T11:14:12.992Z,95.70
2018-12-21T11:16:48.457Z,95.60
2018-12-21T11:19:23.021Z,95.60
2018-12-21T11:21:57.364Z,95.70
2018-12-21T11:24:35.521Z,96.00
2018-12-21T11:27:12.938Z,95.60
2018-12-21T11:29:49.710Z,95.70
2018-12-21T11:32:24.681Z,95.70
2018-12-21T11:35:00.280Z,95.70
2018-12-21T11:37:34.651Z,95.80
2018-12-21T11:40:11.309Z,95.90
2018-12-21T11:42:48.069Z,96.10
2018-12-21T11:45:24.485Z,96.60
2018-12-21T11:48:01.116Z,97.20
2018-12-21T11:50:35.495Z,97.80
2018-12-21T11:53:12.057Z,97.70
2018-12-21T11:55:48.232Z,97.80
2018-12-21T11:58:22.589Z,99.90
2018-12-21T12:00:57.379Z,99.90
2018-12-21T12:03:32.585Z,99.90
2018-12-21T12:06:07.664Z,99.40
2018-12-21T12:08:42.516Z,98.90
2018-12-21T12:11:19.118Z,98.70
2018-12-21T12:13:53.812Z,98.50
2018-12-21T12:16:28.681Z,98.00
2018-12-21T12:19:02.936Z,97.50
2018-12-21T12:24:40.286Z,97.00
2018-12-21T12:27:15.714Z,96.70
2018-12-21T12:29:50.189Z,96.70
2018-12-21T12:32:26.750Z,96.70
2018-12-21T12:35:01.481Z,96.60
2018-12-21T12:37:36.161Z,96.60
2018-12-21T12:40:11.680Z,96.60
2018-12-21T12:42:46.797Z,96.70
2018-12-21T12:45:23.541Z,96.40
2018-12-21T12:47:58.854Z,96.50
2018-12-21T12:50:33.641Z,96.50
2018-12-21T12:53:10.713Z,96.50
2018-12-21T12:55:45.970Z,96.50
2018-12-21T12:58:20.825Z,96.50
2018-12-21T13:00:55.949Z,96.60
2018-12-21T13:03:28.853Z,96.90
2018-12-21T13:06:03.833Z,96.40
2018-12-21T13:11:41.437Z,96.40
2018-12-21T13:14:16.691Z,96.40
2018-12-21T13:16:51.194Z,96.50
2018-12-21T13:19:27.519Z,96.70
2018-12-21T13:22:03.541Z,96.70
2018-12-21T13:27:40.896Z,96.70
2018-12-21T13:30:15.499Z,96.80
2018-12-21T13:32:51.895Z,96.90
2018-12-21T13:35:28.603Z,96.90
2018-12-21T13:38:05.881Z,97.20
2018-12-21T13:40:40.913Z,97.30
2018-12-21T13:43:15.684Z,97.20
2018-12-21T13:45:49.986Z,97.30
2018-12-21T13:48:24.917Z,97.20
2018-12-21T13:51:00.207Z,97.20
2018-12-21T13:53:36.785Z,97.00
2018-12-21T13:56:11.098Z,96.80
2018-12-21T13:58:46.421Z,96.80
2018-12-21T14:01:21.217Z,96.80
2018-12-21T14:03:56.436Z,96.80
2018-12-21T14:06:31.556Z,96.80
2018-12-21T14:09:08.680Z,96.90
2018-12-21T14:11:43.547Z,96.90
2018-12-21T14:14:18.399Z,97.10
2018-12-21T14:16:52.737Z,97.00
2018-12-21T14:19:27.749Z,97.00
2018-12-21T14:22:02.589Z,96.90
2018-12-21T14:24:41.461Z,97.00
2018-12-21T14:27:16.848Z,97.00
2018-12-21T14:29:51.389Z,96.80
2018-12-21T14:32:26.144Z,95.90
2018-12-21T14:35:00.593Z,95.20
2018-12-21T14:37:35.832Z,95.10
2018-12-21T14:40:10.638Z,95.00
2018-12-21T14:42:47.159Z,95.10
2018-12-21T14:45:22.993Z,95.10
2018-12-21T14:47:58.286Z,95.00
2018-12-21T14:50:32.780Z,95.00
2018-12-21T14:53:09.586Z,95.10
2018-12-21T14:55:44.139Z,95.30
2018-12-21T14:58:19.377Z,95.50
2018-12-21T15:00:56.117Z,95.50
2018-12-21T15:03:30.677Z,95.60
2018-12-21T15:06:07.456Z,95.60
2018-12-21T15:08:44.185Z,95.60
2018-12-21T15:11:21.363Z,95.70
2018-12-21T15:13:56.900Z,95.80
2018-12-21T15:16:33.994Z,95.80
2018-12-21T15:19:08.512Z,96.00
2018-12-21T15:21:44.870Z,96.00
2018-12-21T15:24:20.200Z,96.00
2018-12-21T15:26:55.193Z,95.90
2018-12-21T15:29:29.960Z,95.80
2018-12-21T15:32:06.536Z,95.90
2018-12-21T15:34:43.558Z,95.90
2018-12-21T15:37:18.674Z,95.90
2018-12-21T15:39:55.359Z,95.70
2018-12-21T15:42:32.253Z,95.80
2018-12-21T15:45:07.965Z,95.80
2018-12-21T15:47:44.886Z,95.80
2018-12-21T15:50:20.986Z,95.80
2018-12-21T15:52:55.578Z,95.80
2018-12-21T15:55:30.761Z,95.80
2018-12-21T15:58:05.523Z,95.90
2018-12-21T16:00:41.980Z,96.00
2018-12-21T16:03:17.921Z,95.90
2018-12-21T16:05:55.010Z,95.80
2018-12-21T16:08:31.613Z,95.80
2018-12-21T16:11:06.411Z,95.80
2018-12-21T16:13:42.606Z,95.90
2018-12-21T16:16:16.976Z,95.90
2018-12-21T16:18:49.963Z,95.90
2018-12-21T16:21:24.766Z,95.90
2018-12-21T16:24:06.841Z,95.70
2018-12-21T16:26:39.349Z,95.80
2018-12-21T16:29:16.317Z,95.80
2018-12-21T16:31:51.561Z,95.90
2018-12-21T16:34:26.222Z,95.90
2018-12-21T16:37:03.020Z,95.90
2018-12-21T16:39:39.626Z,96.00
2018-12-21T16:42:16.417Z,95.90
2018-12-21T16:44:57.556Z,95.70
2018-12-21T16:47:34.769Z,95.80
2018-12-21T16:50:13.160Z,95.90
2018-12-21T16:52:49.807Z,96.00
2018-12-21T16:55:24.666Z,96.00
2018-12-21T16:57:59.885Z,96.20
2018-12-21T17:00:36.538Z,96.20
2018-12-21T17:03:15.683Z,96.30
2018-12-21T17:05:46.789Z,96.30
2018-12-21T17:08:21.870Z,96.30
2018-12-21T17:10:56.745Z,96.30
2018-12-21T17:13:29.713Z,96.20
2018-12-21T17:16:04.636Z,96.30
2018-12-21T17:18:39.963Z,96.30
2018-12-21T17:21:16.923Z,96.10
2018-12-21T17:23:51.422Z,96.10
2018-12-21T17:26:25.963Z,95.80
2018-12-21T17:29:01.334Z,95.50
2018-12-21T17:31:36.657Z,95.20
2018-12-21T17:34:11.481Z,95.30
2018-12-21T17:36:47.617Z,95.40
2018-12-21T17:39:21.761Z,95.30
2018-12-21T17:41:57.824Z,95.10
2018-12-21T17:44:33.046Z,95.20
2018-12-21T17:47:08.324Z,95.20
2018-12-21T17:52:35.435Z,95.00
2018-12-21T17:55:11.245Z,94.90
2018-12-21T17:57:45.743Z,94.80
2018-12-21T18:00:34.025Z,94.80
2018-12-21T18:03:09.814Z,95.00
2018-12-21T18:05:46.204Z,94.90
2018-12-21T18:08:24.037Z,95.00
2018-12-21T18:10:58.417Z,95.10
2018-12-21T18:13:33.613Z,95.20
2018-12-21T18:16:08.134Z,95.30
2018-12-21T18:18:43.253Z,95.40
2018-12-21T18:21:18.294Z,95.60
2018-12-21T18:23:53.321Z,95.60
2018-12-21T18:26:38.425Z,95.80
2018-12-21T18:29:07.605Z,95.80
2018-12-21T18:32:04.467Z,95.80
2018-12-21T18:34:41.166Z,95.70
2018-12-21T18:37:15.952Z,95.70
2018-12-21T18:39:50.958Z,95.80
2018-12-21T18:42:25.467Z,95.90
2018-12-21T18:45:02.014Z,95.90
2018-12-21T18:47:38.098Z,96.20
2018-12-21T18:50:14.898Z,96.30
2018-12-21T18:52:51.707Z,96.30
2018-12-21T18:55:27.753Z,96.40
2018-12-21T18:58:04.950Z,96.50
2018-12-21T19:00:37.828Z,96.90
2018-12-21T19:03:14.139Z,97.00
2018-12-21T19:05:50.904Z,97.00
2018-12-21T19:08:25.546Z,97.50
2018-12-21T19:11:00.745Z,97.10
2018-12-21T19:13:41.089Z,97.00
2018-12-21T19:16:17.401Z,96.90
2018-12-21T19:18:52.387Z,96.90
2018-12-21T19:21:28.006Z,96.70
2018-12-21T19:24:05.158Z,96.70
2018-12-21T19:26:40.158Z,96.70
2018-12-21T19:29:14.417Z,96.80
2018-12-21T19:31:51.120Z,96.80
2018-12-21T19:34:26.323Z,96.80
2018-12-21T19:37:01.218Z,96.90
2018-12-21T19:39:38.096Z,97.00
2018-12-21T19:42:14.927Z,97.00
2018-12-21T19:44:51.653Z,97.00
2018-12-21T19:47:24.714Z,97.00
2018-12-21T19:49:59.717Z,97.00
2018-12-21T19:52:36.662Z,97.10
2018-12-21T19:55:22.514Z,97.10
2018-12-21T19:57:58.027Z,97.10
2018-12-21T20:00:33.166Z,97.10
2018-12-21T20:03:07.840Z,97.10
2018-12-21T20:05:42.898Z,97.20
2018-12-21T20:08:17.931Z,97.20
2018-12-21T20:10:52.844Z,97.20
2018-12-21T20:13:28.035Z,97.30
2018-12-21T20:16:04.801Z,97.40
2018-12-21T20:18:39.773Z,97.40
2018-12-21T20:21:15.689Z,97.50
2018-12-21T20:23:50.338Z,97.50
2018-12-21T20:26:25.288Z,97.40
2018-12-21T20:29:02.069Z,97.40
2018-12-21T20:31:37.246Z,97.40
2018-12-21T20:34:12.211Z,97.40
2018-12-21T20:36:47.580Z,97.30
2018-12-21T20:39:26.698Z,97.30
2018-12-21T20:42:01.312Z,97.40
2018-12-21T20:44:37.805Z,97.30
2018-12-21T20:47:14.955Z,97.40
2018-12-21T20:49:51.501Z,97.40
2018-12-21T20:52:25.769Z,97.30
2018-12-21T20:55:04.321Z,97.70
2018-12-21T20:57:40.615Z,97.50
2018-12-21T21:00:18.149Z,97.40
2018-12-21T21:02:54.810Z,97.40
2018-12-21T21:05:29.977Z,97.50
2018-12-21T21:08:04.824Z,97.50
2018-12-21T21:10:39.765Z,97.60
2018-12-21T21:13:19.281Z,97.50
2018-12-21T21:15:51.082Z,97.50
2018-12-21T21:18:26.160Z,97.50
2018-12-21T21:21:02.719Z,97.40
2018-12-21T21:23:37.200Z,97.70
2018-12-21T21:26:12.189Z,97.40
2018-12-21T21:28:46.740Z,97.40
2018-12-21T21:31:20.933Z,97.40
2018-12-21T21:33:55.977Z,97.40
2018-12-21T21:36:31.031Z,97.20
2018-12-21T21:39:08.374Z,97.30
2018-12-21T21:41:43.806Z,97.20
2018-12-21T21:44:21.806Z,97.30
2018-12-21T21:46:56.989Z,97.30
2018-12-21T21:49:31.550Z,97.40
2018-12-21T21:52:05.831Z,97.40
2018-12-21T21:54:40.791Z,97.50
2018-12-21T21:57:18.097Z,97.40
2018-12-21T21:59:52.980Z,97.40
2018-12-21T22:02:29.683Z,97.50
2018-12-21T22:05:04.742Z,97.50
2018-12-21T22:07:39.319Z,97.60
2018-12-21T22:10:16.000Z,97.70
2018-12-21T22:12:50.356Z,97.90
2018-12-21T22:15:23.301Z,98.10
2018-12-21T22:17:58.538Z,98.20
2018-12-21T22:20:34.787Z,98.20
2018-12-21T22:23:11.719Z,98.30
2018-12-21T22:25:53.266Z,98.30
2018-12-21T22:28:23.726Z,98.40
2018-12-21T22:30:58.207Z,98.40
2018-12-21T22:33:33.344Z,98.40
2018-12-21T22:36:08.481Z,98.70
2018-12-21T22:38:45.839Z,98.80
2018-12-21T22:41:21.141Z,98.90
2018-12-21T22:43:56.145Z,98.90
2018-12-21T22:46:31.425Z,99.30
2018-12-21T22:49:06.207Z,99.80
2018-12-21T22:51:41.331Z,99.80
2018-12-21T22:54:16.119Z,99.90
2018-12-21T22:56:51.243Z,99.90
2018-12-21T22:59:25.979Z,99.90
2018-12-21T23:02:00.918Z,99.90
2018-12-21T23:04:36.029Z,99.90
2018-12-21T23:07:12.958Z,99.90
2018-12-21T23:09:48.116Z,99.90
2018-12-21T23:12:24.353Z,99.90
2018-12-21T23:14:58.748Z,99.90
2018-12-21T23:17:33.687Z,99.90
2018-12-21T23:20:10.831Z,99.90
2018-12-21T23:22:45.460Z,99.90
2018-12-21T23:25:21.960Z,99.90
2018-12-21T23:28:04.821Z,99.90
2018-12-21T23:30:33.822Z,99.90
2018-12-21T23:33:10.401Z,99.90
2018-12-21T23:35:47.087Z,99.90
2018-12-21T23:38:21.513Z,99.90
2018-12-21T23:40:56.248Z,99.90
2018-12-21T23:43:31.133Z,99.90
2018-12-21T23:46:07.771Z,99.90
2018-12-21T23:48:44.670Z,99.90
2018-12-21T23:51:21.787Z,99.90
2018-12-21T23:53:56.839Z,99.90
2018-12-21T23:56:31.805Z,99.90
2018-12-21T23:59:06.714Z,99.90
